Latest Weather Observations for Mandurah

IDW60801

Issued at 8:02 am WST Thursday 29 January 2015 (issued every 30 minutes, with the page automatically refreshed every 10 minutes)

About weather observations | Map of weather stations | Latest weather observations for WA | Other Formats
Station Details ID: 009977 Name: MANDURAH Lat: -32.52 Lon: 115.71 Height: 3.0 m
Data from the previous 72 hours. | See also: Recent months at Mandurah
Date/Time
WST
Temp
°C
App
Temp
°C
Dew
Point
Rel
Hum
%
Delta-T
°C
Wind Press
QNH
hPa
Press
MSL
hPa
Rain
since 9 am
mm
Dir
 
Spd
km/h
Gust
km/h
Spd
kts
Gust
kts
29/08:00am 24.6 25.4 19.9 75 3.0 S 15 19 8 10 1009.1 1009.1 0.4
29/07:30am 23.4 24.6 20.7 85 1.8 S 15 20 8 11 1008.8 1008.8 0.4
29/07:00am 23.5 25.2 21.0 86 1.6 S 13 20 7 11 1008.6 1008.6 0.4
29/06:30am 23.5 25.7 21.2 87 1.5 S 11 17 6 9 1008.4 1008.4 0.4
29/06:00am 23.3 25.8 21.0 87 1.5 WSW 9 13 5 7 1008.1 1008.1 0.4
29/05:30am 23.8 27.1 21.5 87 1.5 SSE 6 7 3 4 1007.6 1007.6 0.4
29/05:00am 23.4 26.5 21.1 87 1.5 SW 6 7 3 4 1007.6 1007.6 0.4
29/04:30am 23.7 27.1 21.6 88 1.4 S 6 9 3 5 1007.3 1007.3 0.4
29/04:00am 23.6 26.3 20.7 84 1.9 SSE 7 9 4 5 1007.0 1007.0 0.4
29/03:30am 23.2 26.3 21.1 88 1.4 SSW 6 9 3 5 1007.2 1007.2 0.4
29/03:00am 23.6 26.1 21.7 89 1.3 WSW 11 17 6 9 1007.2 1007.2 0.4
29/02:30am 25.2 28.5 20.7 76 2.9 SW 4 9 2 5 1006.8 1006.8 0.4
29/02:00am 25.4 26.8 16.5 58 5.5 S 4 6 2 3 1006.5 1006.5 0.4
29/01:30am 27.0 27.6 15.4 49 7.1 ESE 6 7 3 4 1006.5 1006.5 0.4
29/01:00am 26.3 27.7 17.4 58 5.6 SSW 6 7 3 4 1006.7 1006.7 0.4
29/12:30am 26.0 28.1 17.1 58 5.5 SSW 2 7 1 4 1006.7 1006.7 0.4
29/12:00am 28.1 27.3 14.0 42 8.4 ESE 11 22 6 12 1006.6 1006.6 0.4
 
Date/Time
WST
Temp
°C
App
Temp
°C
Dew
Point
Rel
Hum
%
Delta-T
°C
Wind Press
QNH
hPa
Press
MSL
hPa
Rain
since 9 am
mm
Dir
 
Spd
km/h
Gust
km/h
Spd
kts
Gust
kts
28/11:30pm 25.7 28.2 21.1 76 3.0 SSE 9 13 5 7 1006.5 1006.5 0.4
28/11:00pm 25.7 27.7 20.0 71 3.7 S 9 11 5 6 1006.6 1006.6 0.0
28/10:30pm 25.8 27.3 19.7 69 3.9 S 11 15 6 8 1006.7 1006.7 0.0
28/10:00pm 25.7 27.7 20.0 71 3.7 SSW 9 11 5 6 1006.8 1006.8 0.0
28/09:30pm 27.7 30.1 20.0 63 5.0 WSW 7 13 4 7 1006.5 1006.5 0.0
28/09:00pm 29.6 30.5 16.1 44 8.4 S 6 9 3 5 1006.4 1006.4 0.0
28/08:30pm 29.8 30.6 17.3 47 7.9 SSE 9 17 5 9 1006.3 1006.3 0.0
28/08:00pm 30.7 30.2 13.9 36 10.2 S 9 13 5 7 1006.0 1006.0 0.0
28/07:30pm 31.2 30.9 14.4 36 10.2 SSW 9 15 5 8 1005.6 1005.6 0.0
28/07:00pm 31.7 31.0 14.4 35 10.6 SSW 11 17 6 9 1005.4 1005.4 0.0
28/06:30pm 32.0 31.7 15.5 37 10.2 SSW 11 17 6 9 1005.5 1005.5 0.0
28/06:00pm 32.6 31.8 15.1 34 10.8 S 13 20 7 11 1005.6 1005.6 0.0
28/05:30pm 32.3 31.7 15.7 36 10.3 S 13 19 7 10 1005.6 1005.6 0.0
28/05:00pm 31.4 30.7 17.3 43 9.0 S 17 26 9 14 1005.4 1005.4 0.0
28/04:30pm 31.2 30.3 16.8 42 9.1 SW 17 26 9 14 1005.2 1005.2 0.0
28/04:00pm 29.8 28.5 17.3 47 7.9 WSW 20 30 11 16 1005.5 1005.5 0.0
28/03:30pm 30.8 29.2 17.5 45 8.5 WSW 22 32 12 17 1005.5 1005.5 0.0
28/03:00pm 31.0 29.0 17.3 43 8.7 W 24 32 13 17 1005.7 1005.7 0.0
28/02:30pm 31.5 29.9 17.4 43 9.0 W 22 30 12 16 1005.8 1005.8 0.0
28/02:00pm 31.5 30.3 17.4 43 9.0 W 20 30 11 16 1006.0 1006.0 0.0
28/01:30pm 31.5 30.3 17.4 43 9.0 W 20 26 11 14 1006.5 1006.5 0.0
28/01:00pm 30.9 29.5 16.5 42 9.1 WNW 19 24 10 13 1006.9 1006.9 0.0
28/12:30pm 31.1 29.8 15.9 40 9.5 WNW 17 20 9 11 1007.2 1007.2 0.0
28/12:00pm 32.5 32.3 16.8 39 10.0 WNW 13 15 7 8 1007.5 1007.5 0.0
28/11:30am 31.8 32.3 16.5 39 9.6 NW 9 11 5 6 1007.8 1007.8 0.0
28/11:00am 30.5 31.6 17.9 47 8.1 NNW 9 9 5 5 1008.0 1008.0 0.0
28/10:30am 30.2 30.6 16.2 42 8.7 N 9 11 5 6 1008.2 1008.2 0.0
28/10:00am 29.5 29.0 17.0 47 7.9 NNW 15 17 8 9 1008.2 1008.2 0.0
28/09:30am 28.6 27.4 16.2 47 7.7 NNW 17 19 9 10 1008.2 1008.2 0.0
28/09:00am 28.6 27.8 16.2 47 7.7 N 15 17 8 9 1008.0 1008.0 0.0
28/08:30am 27.5 27.4 18.8 59 5.6 NNW 17 20 9 11 1007.9 1007.9 0.0
28/08:00am 30.1 27.4 13.0 35 10.2 NE 19 22 10 12 1007.6 1007.6 0.0
28/07:30am 29.7 27.0 11.7 33 10.4 NE 17 22 9 12 1007.3 1007.3 0.0
28/07:00am 28.6 26.0 12.1 36 9.6 NE 17 22 9 12 1007.0 1007.0 0.0
28/06:30am 28.3 25.9 10.0 32 10.3 ENE 13 19 7 10 1006.7 1006.7 0.0
28/06:00am 27.9 24.8 8.7 30 10.5 ENE 15 22 8 12 1006.4 1006.4 0.0
28/05:30am 27.9 24.4 8.7 30 10.5 ENE 17 28 9 15 1005.9 1005.9 0.0
28/05:00am 27.9 25.4 8.2 29 10.7 ENE 11 22 6 12 1005.5 1005.5 0.0
28/04:30am 28.3 25.0 8.1 28 11.0 ENE 15 28 8 15 1005.1 1005.1 0.0
28/04:00am 28.1 25.3 8.4 29 10.8 ENE 13 20 7 11 1004.8 1004.8 0.0
28/03:30am 27.9 24.6 8.2 29 10.7 E 15 24 8 13 1004.7 1004.7 0.0
28/03:00am 28.5 23.9 8.2 28 11.1 E 22 33 12 18 1004.6 1004.6 0.0
28/02:30am 28.4 24.6 7.6 27 11.2 E 17 28 9 15 1004.6 1004.6 0.0
28/02:00am 28.7 25.4 7.9 27 11.3 E 15 30 8 16 1004.7 1004.7 0.0
28/01:30am 28.5 25.1 7.7 27 11.2 E 15 24 8 13 1004.8 1004.8 0.0
28/01:00am 28.9 25.1 7.5 26 11.6 E 17 30 9 16 1005.2 1005.2 0.0
28/12:30am 28.3 25.5 8.6 29 10.8 ESE 13 20 7 11 1005.4 1005.4 0.0
28/12:00am 27.9 24.9 10.6 34 9.8 ESE 17 22 9 12 1005.6 1005.6 0.0
 
Date/Time
WST
Temp
°C
App
Temp
°C
Dew
Point
Rel
Hum
%
Delta-T
°C
Wind Press
QNH
hPa
Press
MSL
hPa
Rain
since 9 am
mm
Dir
 
Spd
km/h
Gust
km/h
Spd
kts
Gust
kts
27/11:30pm 28.1 26.1 12.8 38 9.0 SSE 15 20 8 11 1005.4 1005.4 0.0
27/11:00pm 27.9 26.8 15.2 46 7.7 SSE 15 20 8 11 1005.4 1005.4 0.0
27/10:30pm 27.2 26.9 16.5 52 6.6 SSE 13 20 7 11 1005.7 1005.7 0.0
27/10:00pm 27.6 27.1 15.9 49 7.2 SSE 13 19 7 10 1006.0 1006.0 0.0
27/09:30pm 28.0 27.3 15.3 46 7.7 SSE 13 19 7 10 1006.1 1006.1 0.0
27/09:00pm 28.4 26.9 14.3 42 8.5 SSE 15 19 8 10 1006.2 1006.2 0.0
27/08:30pm 28.9 27.6 13.6 39 9.1 S 13 17 7 9 1006.3 1006.3 0.0
27/08:00pm 29.1 27.8 13.7 38 9.2 SSE 13 19 7 10 1006.1 1006.1 0.0
27/07:30pm 29.3 27.3 12.7 36 9.8 S 15 22 8 12 1006.1 1006.1 0.0
27/07:00pm 29.7 27.8 13.0 35 9.9 S 15 26 8 14 1006.2 1006.2 0.0
27/06:30pm 30.6 27.9 13.0 34 10.5 S 19 28 10 15 1006.0 1006.0 0.0
27/06:00pm 32.7 29.5 10.1 25 13.0 SSW 17 28 9 15 1005.6 1005.6 0.0
27/05:30pm 33.5 30.7 11.4 26 13.0 SW 17 24 9 13 1005.4 1005.4 0.0
27/05:00pm 34.2 31.4 11.4 25 13.5 SW 17 30 9 16 1005.4 1005.4 0.0
27/04:30pm 33.7 30.4 11.5 26 13.1 SW 20 30 11 16 1005.6 1005.6 0.0
27/04:00pm 34.8 32.0 11.2 24 13.9 WSW 17 22 9 12 1005.9 1005.9 0.0
27/03:30pm 34.5 31.2 11.0 24 13.8 SW 19 26 10 14 1006.0 1006.0 0.0
27/03:00pm 34.3 31.0 10.8 24 13.7 SW 19 30 10 16 1006.2 1006.2 0.0
27/02:30pm 33.5 29.6 10.8 25 13.2 SW 22 28 12 15 1006.2 1006.2 0.0
27/02:00pm 32.8 29.5 12.9 29 11.9 WSW 22 32 12 17 1006.5 1006.5 0.0
27/01:30pm 34.0 31.3 12.9 28 12.7 WSW 19 26 10 14 1006.7 1006.7 0.0
27/01:00pm 35.8 33.2 12.1 24 14.2 WSW 17 22 9 12 1007.0 1007.0 0.0
27/12:30pm 36.1 34.1 10.3 21 15.1 WSW 11 15 6 8 1007.3 1007.3 0.0
27/12:00pm 34.4 32.6 10.9 24 13.8 WNW 11 13 6 7 1007.5 1007.5 0.0
27/11:30am 33.5 33.8 15.0 32 11.5 NW 7 9 4 5 1007.7 1007.7 0.0
27/11:00am 33.9 33.3 11.7 26 13.1 NNE 6 9 3 5 1007.9 1007.9 0.0
27/10:30am 33.3 32.2 11.8 27 12.7 NE 9 15 5 8 1008.2 1008.2 0.0
27/10:00am 32.5 30.6 10.5 26 12.7 NE 11 19 6 10 1008.3 1008.3 0.0
27/09:30am 31.1 28.4 10.4 28 11.8 NE 15 20 8 11 1008.5 1008.5 0.0
27/09:00am 30.6 27.1 8.9 26 12.1 ENE 17 26 9 14 1008.5 1008.5 0.0
27/08:30am 29.3 26.1 8.4 27 11.5 ENE 15 20 8 11 1008.7 1008.7 0.0
27/08:00am 27.3 24.0 8.2 30 10.3 ENE 15 24 8 13 1008.8 1008.8 0.0
27/07:30am 25.9 23.1 8.4 33 9.4 ENE 13 22 7 12 1008.9 1008.9 0.0
27/07:00am 23.9 22.6 9.1 39 8.0 E 6 11 3 6 1008.9 1008.9 0.0
27/06:30am 22.8 22.2 8.9 41 7.4 E 2 4 1 2 1008.8 1008.8 0.0
27/06:00am 22.4 20.2 9.2 43 7.1 E 11 19 6 10 1008.4 1008.4 0.0
27/05:30am 22.6 19.6 9.4 43 7.1 E 15 26 8 14 1008.1 1008.1 0.0
27/05:00am 22.7 19.3 9.1 42 7.3 E 17 28 9 15 1008.0 1008.0 0.0
27/04:30am 23.0 19.3 9.4 42 7.3 E 19 28 10 15 1007.7 1007.7 0.0
27/04:00am 23.3 19.9 9.3 41 7.6 E 17 30 9 16 1007.6 1007.6 0.0
27/03:30am 23.7 20.0 9.3 40 7.8 E 19 32 10 17 1007.4 1007.4 0.0
27/03:00am 24.0 20.2 9.2 39 8.0 E 19 30 10 16 1007.4 1007.4 0.0
27/02:30am 24.4 20.3 8.8 37 8.4 E 20 32 11 17 1007.4 1007.4 0.0
27/02:00am 24.8 20.3 8.7 36 8.7 E 22 32 12 17 1007.4 1007.4 0.0
27/01:30am 25.4 21.0 8.8 35 9.0 E 22 32 12 17 1007.5 1007.5 0.0
27/01:00am 25.9 21.6 8.0 32 9.6 E 20 32 11 17 1007.7 1007.7 0.0
27/12:30am 26.4 21.9 6.9 29 10.3 E 20 39 11 21 1008.0 1008.0 0.0
27/12:00am 27.2 22.3 4.9 24 11.4 E 20 33 11 18 1008.0 1008.0 0.0
 
Date/Time
WST
Temp
°C
App
Temp
°C
Dew
Point
Rel
Hum
%
Delta-T
°C
Wind Press
QNH
hPa
Press
MSL
hPa
Rain
since 9 am
mm
Dir
 
Spd
km/h
Gust
km/h
Spd
kts
Gust
kts
26/11:30pm 27.5 23.1 4.5 23 11.7 ESE 17 26 9 14 1007.9 1007.9 0.0
26/11:00pm 27.3 23.7 5.0 24 11.4 ESE 13 20 7 11 1007.8 1007.8 0.0
26/10:30pm 26.9 23.7 6.9 28 10.6 ESE 13 17 7 9 1007.9 1007.9 0.0
26/10:00pm 26.5 26.3 14.6 48 7.1 SSE 9 13 5 7 1008.2 1008.2 0.0
26/09:30pm 27.1 27.4 16.1 51 6.8 SSE 9 11 5 6 1008.3 1008.3 0.0
26/09:00pm 27.0 27.9 16.6 53 6.5 SSE 7 11 4 6 1008.3 1008.3 0.0
26/08:30pm 27.0 27.5 16.6 53 6.4 S 9 13 5 7 1008.3 1008.3 0.0
26/08:00pm 27.5 27.4 16.1 49 7.0 S 11 13 6 7 1008.1 1008.1 0.0
26/07:30pm 28.4 28.3 16.0 47 7.7 S 11 15 6 8 1008.0 1008.0 0.0
26/07:00pm 29.1 29.5 16.3 46 8.0 S 9 15 5 8 1007.9 1007.9 0.0
26/06:30pm 29.8 29.3 15.9 43 8.6 S 13 19 7 10 1007.8 1007.8 0.0
26/06:00pm 30.8 30.6 14.8 37 9.8 SSW 9 17 5 9 1007.6 1007.6 0.0
26/05:30pm 32.4 31.9 15.0 35 10.7 S 11 17 6 9 1007.6 1007.6 0.0
26/05:00pm 33.7 33.1 14.7 32 11.7 S 11 15 6 8 1007.7 1007.7 0.0
26/04:30pm 34.8 33.5 11.2 24 13.9 SW 9 19 5 10 1007.9 1007.9 0.0
26/04:00pm 35.2 33.3 8.9 20 15.0 S 9 20 5 11 1008.2 1008.2 0.0
26/03:30pm 35.7 34.0 7.7 18 15.7 SE 6 15 3 8 1008.4 1008.4 0.0
26/03:00pm 33.7 32.9 10.9 25 13.3 N 6 11 3 6 1008.7 1008.7 0.0
26/02:30pm 34.6 33.8 12.9 27 13.1 W 9 19 5 10 1009.1 1009.1 0.0
26/02:00pm 34.5 32.8 8.3 20 14.7 SE 7 11 4 6 1009.5 1009.5 0.0
26/01:30pm 33.3 31.1 9.4 23 13.6 SSE 11 17 6 9 1009.9 1009.9 0.0
26/01:00pm 33.0 31.1 9.1 23 13.5 SSE 9 17 5 9 1010.4 1010.4 0.0
26/12:30pm 32.0 29.6 10.1 26 12.5 SE 13 20 7 11 1010.9 1010.9 0.0
26/12:00pm 32.7 30.7 10.1 25 13.0 ESE 11 19 6 10 1011.3 1011.3 0.0
26/11:30am 30.5 28.1 9.9 28 11.7 ESE 13 22 7 12 1011.8 1011.8 0.0
26/11:00am 30.3 27.4 9.8 28 11.6 ESE 15 22 8 12 1012.4 1012.4 0.0
26/10:30am 28.6 25.2 9.3 30 10.7 ESE 17 24 9 13 1012.7 1012.7 0.0
26/10:00am 26.7 23.3 9.1 33 9.6 E 17 28 9 15 1013.3 1013.3 0.0
26/09:30am 24.8 21.1 9.5 38 8.4 ESE 19 28 10 15 1013.8 1013.8 0.0
26/09:00am 23.5 20.5 9.1 40 7.7 E 15 30 8 16 1013.9 1013.9 0.0
26/08:30am 22.1 18.7 9.3 44 6.9 E 17 24 9 13 1014.1 1014.1 0.0

Other Formats:

Comma delimited format used in spreadsheet applications
http://www.bom.gov.au/fwo/IDW60801/IDW60801.94605.axf

JavaScript Object Notation format (JSON) in row-major order
http://www.bom.gov.au/fwo/IDW60801/IDW60801.94605.json